Time;durP1;ratioP1;P1;durP2;ratioP2;P2;SDS_P1;SDS_P2;PMS_P1;PMS_P2;Temp;Humidity;BMP_temperature;BMP_pressure;BME280_temperature;BME280_humidity;BME280_pressure;Samples;Min_cycle;Max_cycle;Signal;HPM_P1;HPM_P2
2023/01/07 00:00:16;;;;;;;;;;;;;;;8.29;96.06;101722.53;20842840;28;19986;-60
2023/01/07 00:10:38;;;;;;;;;;;;;;;8.36;95.94;101704.44;20848118;28;19944;-60
2023/01/07 00:21:00;;;;;;;;;;;;;;;8.52;97.30;101705.16;20831426;28;19929;-60
2023/01/07 00:31:23;;;;;;;;;;;;;;;8.77;99.76;101698.97;20954060;28;19949;-60
2023/01/07 00:52:25;;;;;;;;;;;;;;;9.08;100.00;101661.66;20852276;28;19925;-59
2023/01/07 01:02:46;;;;;;;;;;;;;;;9.23;100.00;101658.91;20797301;28;19967;-60
2023/01/07 01:13:10;;;;;;;;;;;;;;;9.37;100.00;101671.66;20866189;28;19909;-60
2023/01/07 01:23:31;;;;;;;;;;;;;;;9.55;100.00;101656.81;20874226;28;19925;-59
2023/01/07 01:33:53;;;;;;;;;;;;;;;9.74;100.00;101655.69;20836221;28;19925;-59
2023/01/07 01:44:27;;;;;;;;;;;;;;;9.87;100.00;101657.22;20820358;28;19921;-58
2023/01/07 01:54:53;;;;;;;;;;;;;;;9.96;100.00;101643.34;20850279;28;19967;-58
2023/01/07 02:05:15;;;;;;;;;;;;;;;10.04;100.00;101628.56;20823515;28;19921;-59
2023/01/07 02:15:48;;;;;;;;;;;;;;;10.07;100.00;101625.94;20844901;28;19920;-59
2023/01/07 02:26:19;;;;;;;;;;;;;;;10.16;100.00;101610.31;20831190;28;19924;-59
2023/01/07 02:36:49;;;;;;;;;;;;;;;10.22;100.00;101602.44;20850563;28;20004;-59
2023/01/07 02:47:17;;;;;;;;;;;;;;;10.35;100.00;101601.34;20696249;22;19926;-74
2023/01/07 02:57:57;;;;;;;;;;;;;;;10.42;100.00;101600.38;20647292;28;20291;-74
2023/01/07 03:08:42;;;;;;;;;;;;;;;10.50;100.00;101583.00;20643116;28;19922;-74
2023/01/07 03:19:15;;;;;;;;;;;;;;;10.60;100.00;101573.34;20634361;28;19926;-74
2023/01/07 03:29:36;;;;;;;;;;;;;;;10.62;100.00;101569.81;20641765;28;19945;-73
2023/01/07 03:39:58;;;;;;;;;;;;;;;10.69;100.00;101575.75;20639857;28;19972;-74
2023/01/07 03:50:20;;;;;;;;;;;;;;;10.72;100.00;101558.44;20623015;28;19926;-74
2023/01/07 04:00:41;;;;;;;;;;;;;;;10.78;100.00;101558.31;20640989;28;20385;-75
2023/01/07 04:11:03;;;;;;;;;;;;;;;10.83;100.00;101535.78;20632729;28;19956;-75
2023/01/07 04:21:25;;;;;;;;;;;;;;;10.88;100.00;101538.25;20631761;28;19991;-75
2023/01/07 04:31:46;;;;;;;;;;;;;;;10.93;100.00;101526.09;20641637;28;19929;-71
2023/01/07 04:42:07;;;;;;;;;;;;;;;10.91;100.00;101525.28;20652244;28;20348;-72
2023/01/07 04:52:29;;;;;;;;;;;;;;;10.95;100.00;101525.16;20640962;28;20336;-72
2023/01/07 05:02:50;;;;;;;;;;;;;;;10.93;100.00;101516.56;20647282;28;19967;-75
2023/01/07 05:13:15;;;;;;;;;;;;;;;10.97;100.00;101513.03;20647205;28;19922;-74
2023/01/07 05:23:37;;;;;;;;;;;;;;;11.06;100.00;101505.09;20640606;28;19930;-75
2023/01/07 05:33:58;;;;;;;;;;;;;;;11.02;100.00;101500.84;20634419;28;19988;-74
2023/01/07 05:44:19;;;;;;;;;;;;;;;11.05;100.00;101503.38;20637788;28;19984;-75
2023/01/07 05:54:41;;;;;;;;;;;;;;;11.07;99.86;101496.44;20645762;28;19968;-74
2023/01/07 06:05:03;;;;;;;;;;;;;;;11.08;99.60;101494.69;20632292;28;19984;-74
2023/01/07 06:15:24;;;;;;;;;;;;;;;11.12;98.55;101494.59;20640180;28;20378;-75
2023/01/07 06:25:46;;;;;;;;;;;;;;;11.21;97.38;101493.53;20644441;28;20396;-75
2023/01/07 06:36:07;;;;;;;;;;;;;;;11.15;97.59;101491.94;20643726;28;19973;-73
2023/01/07 06:46:28;;;;;;;;;;;;;;;11.13;97.71;101485.94;20658133;28;20333;-72
2023/01/07 06:56:50;;;;;;;;;;;;;;;11.19;97.95;101476.34;20631350;28;19980;-73
2023/01/07 07:07:12;;;;;;;;;;;;;;;11.17;97.99;101465.16;20639982;28;19976;-73
2023/01/07 07:17:33;;;;;;;;;;;;;;;11.13;98.03;101472.97;20638308;28;20453;-72
2023/01/07 07:27:55;;;;;;;;;;;;;;;11.10;97.83;101478.25;20636564;28;19921;-73
2023/01/07 07:38:17;;;;;;;;;;;;;;;11.07;97.65;101470.53;20637143;28;20297;-73
2023/01/07 07:48:38;;;;;;;;;;;;;;;11.08;97.38;101474.81;20633555;28;20326;-73
2023/01/07 07:59:00;;;;;;;;;;;;;;;11.07;96.88;101464.50;20638150;28;20565;-74
2023/01/07 08:09:21;;;;;;;;;;;;;;;11.13;95.78;101460.03;20649065;28;20053;-73
2023/01/07 08:19:43;;;;;;;;;;;;;;;11.13;96.75;101454.03;20652925;28;19921;-72
2023/01/07 08:30:04;;;;;;;;;;;;;;;11.15;95.97;101442.72;20649936;28;19922;-73
2023/01/07 08:40:26;;;;;;;;;;;;;;;11.22;95.58;101446.03;20645731;28;19948;-73
2023/01/07 08:50:48;;;;;;;;;;;;;;;11.27;95.58;101445.91;20630255;28;19930;-73
2023/01/07 09:01:09;;;;;;;;;;;;;;;11.14;95.31;101438.44;20636702;28;19933;-74
2023/01/07 09:11:31;;;;;;;;;;;;;;;11.20;93.86;101426.22;20641381;28;19997;-70
2023/01/07 09:21:52;;;;;;;;;;;;;;;11.18;93.48;101422.81;20630776;28;19977;-70
2023/01/07 09:32:14;;;;;;;;;;;;;;;11.15;94.39;101416.81;20642915;28;19925;-73
2023/01/07 09:42:54;;;;;;;;;;;;;;;11.23;93.07;101415.78;20643796;28;19925;-72
2023/01/07 09:53:26;;;;;;;;;;;;;;;11.30;93.17;101409.59;20641738;28;19934;-73
2023/01/07 10:03:53;;;;;;;;;;;;;;;11.44;91.53;101402.34;20649197;28;19937;-71
2023/01/07 10:14:30;;;;;;;;;;;;;;;11.51;89.94;101393.50;20633779;28;19925;-71
2023/01/07 10:24:55;;;;;;;;;;;;;;;11.59;89.65;101386.41;20629780;28;19992;-70
2023/01/07 10:35:20;;;;;;;;;;;;;;;11.67;88.47;101361.16;20628939;28;19928;-64
2023/01/07 10:45:47;;;;;;;;;;;;;;;11.66;88.34;101343.91;20630184;28;19949;-69
2023/01/07 10:56:08;;;;;;;;;;;;;;;11.71;88.29;101323.91;20639253;28;19926;-69
2023/01/07 11:06:37;;;;;;;;;;;;;;;11.74;88.03;101316.03;20629367;28;20007;-70
2023/01/07 11:17:09;;;;;;;;;;;;;;;11.79;87.38;101291.69;20627175;28;19930;-69
2023/01/07 11:27:32;;;;;;;;;;;;;;;11.77;85.55;101279.66;20637319;28;19933;-70
2023/01/07 11:37:54;;;;;;;;;;;;;;;11.79;86.10;101265.75;20617327;28;19965;-70
2023/01/07 11:48:22;;;;;;;;;;;;;;;11.81;82.68;101234.63;20633802;28;19925;-70
2023/01/07 11:58:44;;;;;;;;;;;;;;;11.89;83.93;101219.66;20628820;28;19969;-71
2023/01/07 12:09:15;;;;;;;;;;;;;;;11.95;82.56;101207.41;20625996;28;20023;-70
2023/01/07 12:19:51;;;;;;;;;;;;;;;11.87;83.77;101196.38;20632161;28;20396;-71
2023/01/07 12:30:39;;;;;;;;;;;;;;;11.88;84.00;101163.53;20625988;28;20468;-70
2023/01/07 12:41:10;;;;;;;;;;;;;;;11.94;83.06;101148.63;20627509;28;19985;-71
2023/01/07 12:51:37;;;;;;;;;;;;;;;11.95;83.25;101139.97;20633958;28;19930;-72
2023/01/07 13:02:08;;;;;;;;;;;;;;;11.93;82.37;101120.16;20648963;28;19929;-71
2023/01/07 13:12:41;;;;;;;;;;;;;;;11.96;83.04;101113.13;20629051;28;19926;-71
2023/01/07 13:23:04;;;;;;;;;;;;;;;11.97;82.95;101090.63;20638964;28;20405;-72
2023/01/07 13:33:32;;;;;;;;;;;;;;;11.95;79.07;101087.25;20635282;28;19922;-71
2023/01/07 13:43:53;;;;;;;;;;;;;;;12.12;81.81;101061.63;20646200;28;20309;-71
2023/01/07 13:54:35;;;;;;;;;;;;;;;12.05;80.25;101047.97;20641400;28;19925;-71
2023/01/07 14:05:03;;;;;;;;;;;;;;;12.02;80.73;101032.53;20648339;28;20380;-71
2023/01/07 14:15:30;;;;;;;;;;;;;;;11.89;81.46;101013.09;20635752;28;19933;-73
2023/01/07 14:25:55;;;;;;;;;;;;;;;11.81;81.84;101006.47;20636840;28;19921;-71
2023/01/07 14:36:16;;;;;;;;;;;;;;;11.68;81.54;101005.97;20625129;28;20301;-73
2023/01/07 14:46:38;;;;;;;;;;;;;;;11.62;82.18;101000.13;20634692;28;19929;-72
2023/01/07 14:57:14;;;;;;;;;;;;;;;11.50;82.71;100996.16;20618308;28;19965;-70
2023/01/07 15:07:38;;;;;;;;;;;;;;;11.40;82.20;100978.34;20637342;28;19921;-72
2023/01/07 15:17:59;;;;;;;;;;;;;;;11.26;81.77;100962.41;20626025;28;19926;-72
2023/01/07 15:28:33;;;;;;;;;;;;;;;11.19;82.51;100935.00;20618133;28;19925;-71
2023/01/07 15:38:55;;;;;;;;;;;;;;;11.05;83.89;100925.91;20637209;28;19921;-65
2023/01/07 15:49:21;;;;;;;;;;;;;;;10.93;83.66;100905.53;20620263;28;19926;-65
2023/01/07 15:59:48;;;;;;;;;;;;;;;10.93;84.16;100899.53;20613763;28;19930;-64
2023/01/07 16:10:21;;;;;;;;;;;;;;;10.83;84.15;100888.59;20630445;28;19930;-71
2023/01/07 16:20:58;;;;;;;;;;;;;;;10.68;84.96;100870.94;20630069;28;19922;-71
2023/01/07 17:10:05;;;;;;;;;;;;;;;10.47;84.13;100806.91;20901681;28;19917;-72
2023/01/07 17:20:28;;;;;;;;;;;;;;;10.33;84.68;100798.69;20890585;28;19925;-73
2023/01/07 17:30:49;;;;;;;;;;;;;;;10.30;84.34;100790.19;20901351;28;19925;-73
2023/01/07 17:43:32;;;;;;;;;;;;;;;10.23;83.65;100781.75;20882542;28;19929;-74
2023/01/07 17:51:53;;;;;;;;;;;;;;;10.22;84.17;100780.06;20875515;28;19925;-70
2023/01/07 18:02:16;;;;;;;;;;;;;;;10.14;83.95;100782.03;20882149;28;20280;-71
2023/01/07 18:12:39;;;;;;;;;;;;;;;10.05;83.91;100771.94;20937218;28;19964;-72
2023/01/07 18:23:00;;;;;;;;;;;;;;;10.05;83.65;100767.59;20875806;28;19944;-72
2023/01/07 18:33:22;;;;;;;;;;;;;;;10.07;83.17;100754.63;20882631;28;20022;-73
2023/01/07 18:43:43;;;;;;;;;;;;;;;10.03;82.28;100750.44;20900015;28;19969;-73
2023/01/07 18:54:04;;;;;;;;;;;;;;;10.00;83.07;100742.75;20888457;28;19968;-73
2023/01/07 19:04:26;;;;;;;;;;;;;;;10.06;82.54;100743.44;20886926;28;19924;-66
2023/01/07 19:14:47;;;;;;;;;;;;;;;10.13;82.25;100727.78;20893867;28;20363;-77
2023/01/07 19:25:09;;;;;;;;;;;;;;;10.10;81.50;100708.03;20873453;28;20210;-75
2023/01/07 19:35:30;;;;;;;;;;;;;;;10.07;82.29;100696.00;20896046;28;20018;-64
2023/01/07 19:45:54;;;;;;;;;;;;;;;10.05;81.87;100673.69;20892922;28;20096;-64
2023/01/07 19:56:15;;;;;;;;;;;;;;;10.06;82.40;100659.88;20871886;28;19930;-67
2023/01/07 20:06:40;;;;;;;;;;;;;;;10.07;81.93;100646.06;20867131;28;19968;-64
2023/01/07 20:17:01;;;;;;;;;;;;;;;10.11;82.25;100637.31;20879254;28;19932;-65
2023/01/07 20:27:23;;;;;;;;;;;;;;;10.13;81.92;100614.84;20891949;28;20455;-64
2023/01/07 20:37:44;;;;;;;;;;;;;;;10.08;82.28;100638.25;20897467;28;19975;-63
2023/01/07 20:48:06;;;;;;;;;;;;;;;10.00;84.66;100634.19;20893444;28;19993;-63
2023/01/07 20:58:29;;;;;;;;;;;;;;;10.01;83.08;100610.06;20892407;28;19928;-64
2023/01/07 21:08:51;;;;;;;;;;;;;;;10.07;84.31;100604.69;20899013;28;19935;-64
2023/01/07 21:19:12;;;;;;;;;;;;;;;10.12;84.28;100589.91;20885849;28;19947;-63
2023/01/07 21:29:34;;;;;;;;;;;;;;;10.14;83.25;100595.88;20884245;28;19980;-63
2023/01/07 21:39:55;;;;;;;;;;;;;;;10.26;83.30;100595.47;20872383;28;19933;-64
2023/01/07 21:50:17;;;;;;;;;;;;;;;10.30;81.64;100586.72;20896732;28;19940;-63
2023/01/07 22:00:38;;;;;;;;;;;;;;;10.36;82.01;100576.19;20891752;28;20018;-63
2023/01/07 22:11:00;;;;;;;;;;;;;;;10.45;81.60;100573.28;20897661;28;19928;-67
2023/01/07 22:21:21;;;;;;;;;;;;;;;10.56;81.31;100563.44;20886262;28;19955;-66
2023/01/07 22:31:46;;;;;;;;;;;;;;;10.60;80.22;100543.47;20906300;28;19929;-66
2023/01/07 22:42:19;;;;;;;;;;;;;;;10.66;79.49;100533.72;20899851;28;19943;-67
2023/01/07 22:52:41;;;;;;;;;;;;;;;10.81;79.11;100540.97;20884208;28;19929;-66
2023/01/07 23:03:03;;;;;;;;;;;;;;;10.75;80.55;100538.59;20888106;28;19929;-66
2023/01/07 23:13:24;;;;;;;;;;;;;;;10.77;79.95;100531.63;20876122;28;20440;-64
2023/01/07 23:23:45;;;;;;;;;;;;;;;10.81;80.08;100507.31;20882481;28;20341;-64
2023/01/07 23:34:07;;;;;;;;;;;;;;;10.79;79.85;100501.34;20912592;28;20283;-63
2023/01/07 23:44:28;;;;;;;;;;;;;;;10.83;79.36;100497.75;20902715;28;19929;-65
2023/01/07 23:54:50;;;;;;;;;;;;;;;10.91;79.15;100493.13;20896044;28;19929;-64
